Bookmark and Share
Track history (hours):
 

Ferdinand R Hassler

Last reported at 2014-Apr-24 01:33 UTC. Time now 2014-Apr-24 02:06 UTC.
Position N 42°59' W 070°40'.

Length 37 m; draft 3.8 m.

Type: . MMSI: 369970091.

NotesDate/timePositionNaut miles runAvg speedWind from/ knotsBaromVisibWave heightAir tempDewpointWater temp
2014-Apr-24 01:33N 42°59' W 070°40'6 5.6
2014-Apr-24 00:33N 42°54' W 070°42'3 3.0
2014-Apr-23 23:33N 42°55' W 070°46'3 3.0
2014-Apr-23 22:33N 42°57' W 070°44'2 2.1
2014-Apr-23 21:33N 42°59' W 070°43'5 5.0
2014-Apr-23 20:33N 42°55' W 070°46'5 5.4
2014-Apr-23 19:33N 42°60' W 070°43'5 4.9
2014-Apr-23 18:33N 42°55' W 070°46'4 4.4
2014-Apr-23 17:33N 42°59' W 070°43'3 3.4
2014-Apr-23 16:33N 42°56' W 070°45'3 2.7
2014-Apr-23 15:33N 42°59' W 070°44'6 5.7
2014-Apr-23 14:34N 42°53' W 070°46'0 0.3
2014-Apr-23 13:33N 42°53' W 070°46'1 1.0
2014-Apr-23 12:33N 42°52' W 070°47'0 0.1
2014-Apr-23 11:33N 42°52' W 070°47'6 6.4
2014-Apr-23 10:33N 42°57' W 070°41'1 1.0
2014-Apr-23 09:33N 42°56' W 070°41'3 3.0
2014-Apr-23 08:33N 42°53' W 070°41'1 0.6
2014-Apr-23 07:33N 42°53' W 070°41'4 4.1
2014-Apr-23 06:33N 42°57' W 070°40'3 2.6
2014-Apr-23 05:33N 42°59' W 070°39'0 0.5
2014-Apr-23 04:33N 42°59' W 070°39'0 0.1
2014-Apr-23 03:34N 42°59' W 070°39'1 1.0
2014-Apr-23 02:33N 43°00' W 070°39'2 2.0
2014-Apr-23 01:33N 42°58' W 070°39'2 1.8
2014-Apr-23 00:33N 42°60' W 070°39'4 3.8
2014-Apr-22 23:33N 42°59' W 070°44'6 6.2
2014-Apr-22 22:33N 42°53' W 070°46'3 3.3
2014-Apr-22 21:33N 42°57' W 070°45'3 3.4
2014-Apr-22 20:33N 42°60' W 070°43'7 6.7
2014-Apr-22 19:34N 42°53' W 070°47'5 4.7
2014-Apr-22 18:33N 42°58' W 070°45'7 6.8
2014-Apr-22 17:34N 43°04' W 070°43'0 0.2
2014-Apr-22 16:31N 43°04' W 070°43'0 0.0
2014-Apr-22 15:31N 43°04' W 070°43'0 0.0
2014-Apr-22 14:31N 43°04' W 070°43'0 0.0
2014-Apr-22 13:31N 43°04' W 070°43'0 0.0
2014-Apr-22 12:31N 43°04' W 070°43'  
2014-Apr-17 13:33N 43°04' W 070°43'3 2.8
2014-Apr-17 12:34N 43°02' W 070°41'8 8.1
2014-Apr-17 11:34N 42°54' W 070°40'0 0.4
2014-Apr-17 10:34N 42°53' W 070°40'0 0.5
2014-Apr-17 09:33N 42°53' W 070°39'0 0.4
2014-Apr-17 08:33N 42°53' W 070°39'1 1.0
2014-Apr-17 07:33N 42°52' W 070°38'2 1.7
2014-Apr-17 06:33N 42°54' W 070°38'1 0.6
2014-Apr-17 05:34N 42°54' W 070°37'1 0.5
2014-Apr-17 04:34N 42°54' W 070°37'7 1.9
2014-Apr-17 00:33N 43°01' W 070°36'2 2.4
2014-Apr-16 23:33N 43°01' W 070°40'3 2.8
2014-Apr-16 22:33N 43°03' W 070°42'4 3.7
2014-Apr-16 21:33N 42°60' W 070°39'0 0.1
2014-Apr-16 20:33N 43°00' W 070°39'0 0.3
2014-Apr-16 19:32N 42°60' W 070°39'1 0.7
2014-Apr-16 18:32N 43°00' W 070°39'3 2.8
2014-Apr-16 17:33N 42°59' W 070°42'4 4.2
2014-Apr-16 16:33N 42°56' W 070°46'6 5.7
2014-Apr-16 15:33N 42°53' W 070°39'0 0.2
2014-Apr-16 14:31N 42°53' W 070°39'6 6.1
2014-Apr-16 13:33N 42°51' W 070°46'7 7.1
2014-Apr-16 12:33N 42°44' W 070°42'1 0.7
2014-Apr-16 11:33N 42°43' W 070°42'1 0.6
2014-Apr-16 10:34N 42°44' W 070°43'0 0.1
2014-Apr-16 09:33N 42°44' W 070°43'1 1.0
2014-Apr-16 08:34N 42°44' W 070°41'1 1.1
2014-Apr-16 07:34N 42°44' W 070°43'0 0.4
2014-Apr-16 06:33N 42°43' W 070°42'1 0.5
2014-Apr-16 05:33N 42°44' W 070°42'1 1.0
2014-Apr-16 04:33N 42°43' W 070°43'1 0.7
2014-Apr-16 03:33N 42°44' W 070°42'1 0.9
2014-Apr-16 02:34N 42°43' W 070°42'1 0.8
2014-Apr-16 01:33N 42°44' W 070°43'0 0.4
2014-Apr-16 00:34N 42°43' W 070°43'1 0.9
2014-Apr-15 23:33N 42°43' W 070°41'5 4.8
2014-Apr-15 22:33N 42°40' W 070°37'3 2.6
2014-Apr-15 21:33N 42°43' W 070°37'1 0.8
2014-Apr-15 20:33N 42°43' W 070°38'2 1.9
2014-Apr-15 19:31N 42°41' W 070°40'0 0.0
2014-Apr-15 18:31N 42°41' W 070°40'0 0.0
2014-Apr-15 17:33N 42°41' W 070°40'0 0.0
2014-Apr-15 16:34N 42°41' W 070°40'4 3.6
2014-Apr-15 15:34N 42°45' W 070°38'1 1.2
2014-Apr-15 14:33N 42°44' W 070°39'1 0.5
2014-Apr-15 12:34N 42°43' W 070°38'2 1.5
2014-Apr-15 11:34N 42°42' W 070°37'1 0.6
2014-Apr-15 10:34N 42°41' W 070°37'2 2.2
2014-Apr-15 09:33N 42°41' W 070°40'0 0.0
2014-Apr-15 08:33N 42°41' W 070°40'0 0.0
2014-Apr-15 07:33N 42°41' W 070°40'0 0.0
2014-Apr-15 06:33N 42°41' W 070°40'0 0.0
2014-Apr-15 05:33N 42°41' W 070°40'0 0.0
2014-Apr-15 03:33N 42°41' W 070°40'0 0.0
2014-Apr-15 02:33N 42°41' W 070°40'0 0.0
2014-Apr-15 01:33N 42°41' W 070°40'0 0.0
2014-Apr-15 00:33N 42°41' W 070°40'0 0.0
2014-Apr-14 23:33N 42°41' W 070°40'0 0.0
2014-Apr-14 22:33N 42°41' W 070°40'0 0.0
2014-Apr-14 21:33N 42°41' W 070°40'0 0.0
2014-Apr-14 20:33N 42°41' W 070°40'0 0.0
2014-Apr-14 19:30N 42°41' W 070°40'0 0.0
2014-Apr-14 18:33N 42°41' W 070°40'0 0.0
2014-Apr-14 17:33N 42°41' W 070°40'2 2.0
2014-Apr-14 16:34N 42°43' W 070°39'7 6.9
2014-Apr-14 15:34N 42°50' W 070°40'14 7.0
2014-Apr-14 13:31N 43°04' W 070°43'0 0.0
2014-Apr-14 11:31N 43°04' W 070°43'0 0.0
2014-Apr-14 10:31N 43°04' W 070°43'0 0.0
2014-Apr-14 09:31N 43°04' W 070°43'0 0.0
2014-Apr-14 08:31N 43°04' W 070°43'0 0.0
2014-Apr-14 07:31N 43°04' W 070°43'0 0.0
2014-Apr-14 06:31N 43°04' W 070°43'0 0.0
2014-Apr-14 05:31N 43°04' W 070°43'  

Dump ship's entire track history

sailing weather and tide predictions

Ferdinand R Hassler — WTEK — position and weather